Time;durP1;ratioP1;P1;durP2;ratioP2;P2;SDS_P1;SDS_P2;PMS_P1;PMS_P2;Temp;Humidity;BMP_temperature;BMP_pressure;BME280_temperature;BME280_humidity;BME280_pressure;Samples;Min_cycle;Max_cycle;Signal;HPM_P1;HPM_P2
2022/08/08 00:02:03;;;;;;;;;;;12.60;99.90;;;;;;5079909;28;19908;-69
2022/08/08 00:04:34;;;;;;;;;;;12.60;99.90;;;;;;5077219;28;19908;-69
2022/08/08 00:07:07;;;;;;;;;;;12.70;99.90;;;;;;5077391;28;19908;-69
2022/08/08 00:09:51;;;;;;;;;;;12.90;99.90;;;;;;5077167;28;20003;-69
2022/08/08 00:12:20;;;;;;;;;;;12.90;99.90;;;;;;5076947;28;19916;-69
2022/08/08 00:14:50;;;;;;;;;;;12.90;99.90;;;;;;5075742;28;19912;-69
2022/08/08 00:17:19;;;;;;;;;;;12.90;99.90;;;;;;5076891;28;19944;-69
2022/08/08 00:19:56;;;;;;;;;;;13.00;99.90;;;;;;5076892;28;19948;-69
2022/08/08 00:22:45;;;;;;;;;;;13.10;99.90;;;;;;5076528;28;19915;-69
2022/08/08 00:25:28;;;;;;;;;;;13.20;99.90;;;;;;5071250;28;19908;-69
2022/08/08 00:27:58;;;;;;;;;;;13.20;99.90;;;;;;5076261;28;19909;-69
2022/08/08 00:30:30;;;;;;;;;;;13.30;99.90;;;;;;5076209;28;19917;-69
2022/08/08 00:33:25;;;;;;;;;;;13.40;99.90;;;;;;5076437;28;19916;-69
2022/08/08 00:36:08;;;;;;;;;;;13.40;99.90;;;;;;5067528;28;20339;-69
2022/08/08 00:38:34;;;;;;;;;;;13.50;99.90;;;;;;5076318;28;20351;-69
2022/08/08 00:41:01;;;;;;;;;;;13.70;99.90;;;;;;5076181;28;19954;-69
2022/08/08 00:43:47;;;;;;;;;;;13.80;99.90;;;;;;5075921;28;19915;-69
2022/08/08 00:46:23;;;;;;;;;;;13.90;99.90;;;;;;5075704;28;20332;-69
2022/08/08 00:49:07;;;;;;;;;;;13.80;99.90;;;;;;5075864;28;20390;-69
2022/08/08 00:51:52;;;;;;;;;;;13.90;99.90;;;;;;5075662;28;19909;-68
2022/08/08 00:54:34;;;;;;;;;;;13.90;99.90;;;;;;5074648;28;19908;-69
2022/08/08 00:57:07;;;;;;;;;;;14.00;99.90;;;;;;5076039;28;20362;-69
2022/08/08 00:59:52;;;;;;;;;;;14.20;99.90;;;;;;5076047;28;19909;-69
2022/08/08 01:02:19;;;;;;;;;;;14.40;99.90;;;;;;5074446;28;19908;-69
2022/08/08 01:04:45;;;;;;;;;;;14.40;99.90;;;;;;5075704;28;20034;-68
2022/08/08 01:07:47;;;;;;;;;;;14.50;99.90;;;;;;5075783;28;19919;-69
2022/08/08 01:10:32;;;;;;;;;;;14.50;99.90;;;;;;5033346;28;19921;-69
2022/08/08 01:12:58;;;;;;;;;;;14.60;99.90;;;;;;5072239;28;19916;-69
2022/08/08 01:15:34;;;;;;;;;;;14.80;99.90;;;;;;5075777;28;19909;-69
2022/08/08 01:18:01;;;;;;;;;;;15.10;99.90;;;;;;5075586;28;20355;-69
2022/08/08 01:20:34;;;;;;;;;;;15.30;99.90;;;;;;5075631;28;20295;-69
2022/08/08 01:23:28;;;;;;;;;;;15.50;99.90;;;;;;5075471;28;19991;-69
2022/08/08 01:25:58;;;;;;;;;;;15.50;99.90;;;;;;5075539;28;20341;-69
2022/08/08 01:28:24;;;;;;;;;;;15.40;99.90;;;;;;5075124;28;19916;-69
2022/08/08 01:31:03;;;;;;;;;;;15.40;99.90;;;;;;5075249;28;19950;-69
2022/08/08 01:33:30;;;;;;;;;;;15.40;99.90;;;;;;5075239;28;19954;-69
2022/08/08 01:35:56;;;;;;;;;;;15.30;99.90;;;;;;5075139;28;19957;-69
2022/08/08 01:38:36;;;;;;;;;;;15.10;99.90;;;;;;5075079;28;19915;-69
2022/08/08 01:41:13;;;;;;;;;;;15.10;99.90;;;;;;5075167;28;19908;-69
2022/08/08 01:44:02;;;;;;;;;;;14.90;99.90;;;;;;5074910;28;19915;-68
2022/08/08 01:46:34;;;;;;;;;;;15.00;99.90;;;;;;5075005;28;20050;-69
2022/08/08 01:49:04;;;;;;;;;;;15.10;99.90;;;;;;5070768;28;19924;-69
2022/08/08 01:51:31;;;;;;;;;;;15.10;99.90;;;;;;5062972;28;19909;-69
2022/08/08 01:54:15;;;;;;;;;;;15.10;99.90;;;;;;5076458;28;19915;-69
2022/08/08 01:57:01;;;;;;;;;;;15.10;99.90;;;;;;5095139;28;19908;-69
2022/08/08 01:59:27;;;;;;;;;;;15.20;99.90;;;;;;5095129;28;19912;-69
2022/08/08 02:02:03;;;;;;;;;;;15.20;99.90;;;;;;5094781;28;19931;-69
2022/08/08 02:04:48;;;;;;;;;;;15.10;99.90;;;;;;5094486;28;20335;-69
2022/08/08 02:07:38;;;;;;;;;;;15.10;99.90;;;;;;5094944;28;19942;-69
2022/08/08 02:10:22;;;;;;;;;;;15.10;99.90;;;;;;5094519;28;19939;-69
2022/08/08 02:12:49;;;;;;;;;;;15.10;99.90;;;;;;5094647;28;19913;-69
2022/08/08 02:15:26;;;;;;;;;;;15.00;99.90;;;;;;5094842;28;19961;-69
2022/08/08 02:18:23;;;;;;;;;;;15.10;99.90;;;;;;5094768;28;19915;-69
2022/08/08 02:22:30;;;;;;;;;;;15.10;99.90;;;;;;5057353;28;20391;-69
2022/08/08 02:23:45;;;;;;;;;;;15.10;99.90;;;;;;5094536;28;19908;-69
2022/08/08 02:26:24;;;;;;;;;;;15.10;99.90;;;;;;5094397;28;19912;-69
2022/08/08 02:28:53;;;;;;;;;;;15.10;99.90;;;;;;5094357;28;20381;-68
2022/08/08 02:31:20;;;;;;;;;;;15.10;99.90;;;;;;5094561;28;19916;-68
2022/08/08 02:34:05;;;;;;;;;;;15.10;99.90;;;;;;5094491;28;20011;-68
2022/08/08 02:36:50;;;;;;;;;;;15.20;99.90;;;;;;5094406;28;19934;-68
2022/08/08 02:39:46;;;;;;;;;;;15.10;99.90;;;;;;5094286;28;19912;-69
2022/08/08 02:42:12;;;;;;;;;;;15.00;99.90;;;;;;5085015;28;19947;-69
2022/08/08 02:44:51;;;;;;;;;;;15.00;99.90;;;;;;5093996;28;19919;-68
2022/08/08 02:47:36;;;;;;;;;;;15.10;99.90;;;;;;5094293;28;19913;-69
2022/08/08 02:50:06;;;;;;;;;;;15.10;99.90;;;;;;5093772;28;19920;-69
2022/08/08 02:52:55;;;;;;;;;;;15.20;99.90;;;;;;5093413;28;20328;-69
2022/08/08 02:55:41;;;;;;;;;;;15.20;99.90;;;;;;5093982;28;19999;-69
2022/08/08 02:58:14;;;;;;;;;;;15.10;99.90;;;;;;5093568;28;19915;-69
2022/08/08 03:00:56;;;;;;;;;;;15.10;99.90;;;;;;5093860;28;19981;-69
2022/08/08 03:03:41;;;;;;;;;;;15.20;99.90;;;;;;5093833;28;19908;-69
2022/08/08 03:06:19;;;;;;;;;;;15.40;99.90;;;;;;5093480;28;19908;-69
2022/08/08 03:08:46;;;;;;;;;;;15.30;99.90;;;;;;5093645;28;19920;-69
2022/08/08 03:11:31;;;;;;;;;;;15.20;99.90;;;;;;5093717;28;19931;-69
2022/08/08 03:14:06;;;;;;;;;;;15.20;99.90;;;;;;5093625;28;19912;-70
2022/08/08 03:16:45;;;;;;;;;;;15.30;99.90;;;;;;5093699;28;19915;-69
2022/08/08 03:19:36;;;;;;;;;;;15.30;99.90;;;;;;5093466;28;19969;-69
2022/08/08 03:22:03;;;;;;;;;;;15.20;99.90;;;;;;5093408;28;19908;-69
2022/08/08 03:24:29;;;;;;;;;;;15.20;99.90;;;;;;5093710;28;19995;-69
2022/08/08 03:27:02;;;;;;;;;;;15.10;99.90;;;;;;5093472;28;20268;-69
2022/08/08 03:29:32;;;;;;;;;;;15.20;99.90;;;;;;5093736;28;19960;-69
2022/08/08 03:34:44;;;;;;;;;;;15.20;99.90;;;;;;5093713;28;20004;-69
2022/08/08 03:37:15;;;;;;;;;;;15.20;99.90;;;;;;5093490;28;20247;-69
2022/08/08 03:39:43;;;;;;;;;;;15.20;99.90;;;;;;5093375;28;19916;-69
2022/08/08 03:42:14;;;;;;;;;;;15.30;99.90;;;;;;5092933;28;19912;-69
2022/08/08 03:44:41;;;;;;;;;;;15.20;99.90;;;;;;5093320;28;20300;-69
2022/08/08 03:47:08;;;;;;;;;;;15.20;99.90;;;;;;5093219;28;19919;-69
2022/08/08 03:49:34;;;;;;;;;;;15.20;99.90;;;;;;5093245;28;20010;-69
2022/08/08 03:52:01;;;;;;;;;;;15.20;99.90;;;;;;5093190;28;19988;-69
2022/08/08 03:54:28;;;;;;;;;;;15.30;99.90;;;;;;5093307;28;19908;-69
2022/08/08 03:56:55;;;;;;;;;;;15.30;99.90;;;;;;5093233;28;19955;-69
2022/08/08 03:59:27;;;;;;;;;;;15.30;99.90;;;;;;5093225;28;19953;-69
2022/08/08 04:01:54;;;;;;;;;;;15.20;99.90;;;;;;5093336;28;19962;-69
2022/08/08 04:04:21;;;;;;;;;;;15.20;99.90;;;;;;5093036;28;20654;-69
2022/08/08 04:06:57;;;;;;;;;;;15.20;99.90;;;;;;5093479;28;19916;-69
2022/08/08 04:09:24;;;;;;;;;;;15.30;99.90;;;;;;5060323;28;20027;-69
2022/08/08 04:11:51;;;;;;;;;;;15.20;99.90;;;;;;5072044;28;19908;-69
2022/08/08 04:14:18;;;;;;;;;;;15.30;99.90;;;;;;5072011;28;19909;-69
2022/08/08 04:16:44;;;;;;;;;;;15.20;99.90;;;;;;5072391;28;19909;-69
2022/08/08 04:19:11;;;;;;;;;;;15.20;99.90;;;;;;5072896;28;20275;-69
2022/08/08 04:21:38;;;;;;;;;;;15.20;99.90;;;;;;5073167;28;19947;-69
2022/08/08 04:24:04;;;;;;;;;;;15.10;99.90;;;;;;5072537;28;19930;-69
2022/08/08 04:26:31;;;;;;;;;;;15.00;99.90;;;;;;5074421;28;19908;-69
2022/08/08 04:28:58;;;;;;;;;;;15.10;99.90;;;;;;5076484;28;19913;-69
2022/08/08 04:31:25;;;;;;;;;;;15.10;99.90;;;;;;5076648;28;19912;-69
2022/08/08 04:33:52;;;;;;;;;;;15.10;99.90;;;;;;5076399;28;20371;-69
2022/08/08 04:36:18;;;;;;;;;;;15.00;99.90;;;;;;5076191;28;19915;-69
2022/08/08 04:38:45;;;;;;;;;;;14.80;99.90;;;;;;5076361;28;19909;-69
2022/08/08 04:41:12;;;;;;;;;;;14.80;99.90;;;;;;5076300;28;19915;-68
2022/08/08 04:43:39;;;;;;;;;;;14.80;99.90;;;;;;5076303;28;19908;-69
2022/08/08 04:46:06;;;;;;;;;;;14.80;99.90;;;;;;5076047;28;19926;-69
2022/08/08 04:48:33;;;;;;;;;;;14.90;99.90;;;;;;5076437;28;19908;-69
2022/08/08 04:50:59;;;;;;;;;;;14.90;99.90;;;;;;5074772;28;19909;-69
2022/08/08 04:53:26;;;;;;;;;;;14.90;99.90;;;;;;5075951;28;19956;-69
2022/08/08 04:55:53;;;;;;;;;;;14.90;99.90;;;;;;5075802;28;19909;-69
2022/08/08 04:58:20;;;;;;;;;;;14.90;99.90;;;;;;5075667;28;19919;-69
2022/08/08 05:00:46;;;;;;;;;;;14.80;99.90;;;;;;5075954;28;20092;-68
2022/08/08 05:03:13;;;;;;;;;;;14.90;99.90;;;;;;5075852;28;19916;-69
2022/08/08 05:05:40;;;;;;;;;;;14.80;99.90;;;;;;5075850;28;19908;-67
2022/08/08 05:08:06;;;;;;;;;;;14.80;99.90;;;;;;5075426;28;20310;-68
2022/08/08 05:10:33;;;;;;;;;;;14.80;99.90;;;;;;5075543;28;19916;-68
2022/08/08 05:13:01;;;;;;;;;;;14.80;99.90;;;;;;5075486;28;19916;-68
2022/08/08 05:15:27;;;;;;;;;;;14.80;99.90;;;;;;5075502;28;19919;-68
2022/08/08 05:17:54;;;;;;;;;;;14.70;99.90;;;;;;5075572;28;20274;-68
2022/08/08 05:20:21;;;;;;;;;;;14.70;99.90;;;;;;5075241;28;19920;-68
2022/08/08 05:22:49;;;;;;;;;;;14.60;99.90;;;;;;5075426;28;20320;-68
2022/08/08 05:25:16;;;;;;;;;;;14.60;99.90;;;;;;5075361;28;19952;-69
2022/08/08 05:27:43;;;;;;;;;;;14.80;99.90;;;;;;5075326;28;19908;-68
2022/08/08 05:30:10;;;;;;;;;;;14.80;99.90;;;;;;5075091;28;19922;-68
2022/08/08 05:32:38;;;;;;;;;;;14.80;99.90;;;;;;5075397;28;20002;-68
2022/08/08 05:35:05;;;;;;;;;;;14.70;99.90;;;;;;5075304;28;19978;-68
2022/08/08 05:37:33;;;;;;;;;;;14.70;99.90;;;;;;5073912;28;20363;-68
2022/08/08 05:40:03;;;;;;;;;;;14.70;99.90;;;;;;5075128;28;19908;-68
2022/08/08 05:42:41;;;;;;;;;;;14.70;99.90;;;;;;5075245;28;19995;-68
2022/08/08 05:45:09;;;;;;;;;;;14.70;99.90;;;;;;5075007;28;19932;-68
2022/08/08 05:47:37;;;;;;;;;;;14.60;99.90;;;;;;5075082;28;20056;-68
2022/08/08 05:50:07;;;;;;;;;;;14.60;99.90;;;;;;5074728;28;19917;-68
2022/08/08 05:52:34;;;;;;;;;;;14.50;99.90;;;;;;5073582;28;20378;-68
2022/08/08 05:55:01;;;;;;;;;;;14.60;99.90;;;;;;5074717;28;19974;-68
2022/08/08 05:57:28;;;;;;;;;;;14.50;99.90;;;;;;5074611;28;19944;-68
2022/08/08 05:59:57;;;;;;;;;;;14.50;99.90;;;;;;5074875;28;19912;-67
2022/08/08 06:05:11;;;;;;;;;;;14.40;99.90;;;;;;5075249;28;19954;-67
2022/08/08 06:07:39;;;;;;;;;;;14.40;99.90;;;;;;5074704;28;20256;-67
2022/08/08 06:10:09;;;;;;;;;;;14.40;99.90;;;;;;5074316;28;20275;-68
2022/08/08 06:12:36;;;;;;;;;;;14.40;99.90;;;;;;5074329;28;19931;-68
2022/08/08 06:15:06;;;;;;;;;;;14.40;99.90;;;;;;5074438;28;20454;-68
2022/08/08 06:17:34;;;;;;;;;;;14.30;99.90;;;;;;5074479;28;19945;-68
2022/08/08 06:20:03;;;;;;;;;;;14.40;99.90;;;;;;5074293;28;19908;-68
2022/08/08 06:22:30;;;;;;;;;;;14.30;99.90;;;;;;5074297;28;19909;-68
2022/08/08 06:24:56;;;;;;;;;;;14.30;99.90;;;;;;5074446;28;19915;-68
2022/08/08 06:27:30;;;;;;;;;;;14.30;99.90;;;;;;5074130;28;19908;-68
2022/08/08 06:30:23;;;;;;;;;;;14.20;99.90;;;;;;5074064;28;19986;-70
2022/08/08 06:32:55;;;;;;;;;;;14.20;99.90;;;;;;5073960;28;19997;-69
2022/08/08 06:35:22;;;;;;;;;;;14.20;99.90;;;;;;5073923;28;19915;-69
2022/08/08 06:37:56;;;;;;;;;;;14.20;99.90;;;;;;5074069;28;20003;-69
2022/08/08 06:40:24;;;;;;;;;;;14.10;99.90;;;;;;5073558;28;19931;-69
2022/08/08 06:42:53;;;;;;;;;;;14.10;99.90;;;;;;5073988;28;20367;-69
2022/08/08 06:45:21;;;;;;;;;;;14.10;99.90;;;;;;5073710;28;19999;-69
2022/08/08 06:47:49;;;;;;;;;;;14.00;99.90;;;;;;5073858;28;19917;-69
2022/08/08 06:50:16;;;;;;;;;;;14.00;99.90;;;;;;5073290;28;19917;-71
2022/08/08 06:52:43;;;;;;;;;;;14.00;99.90;;;;;;5070870;28;19912;-71
2022/08/08 06:55:10;;;;;;;;;;;14.00;99.90;;;;;;5071703;28;20359;-71
2022/08/08 06:57:37;;;;;;;;;;;13.90;99.90;;;;;;5071561;28;19982;-71
2022/08/08 07:00:05;;;;;;;;;;;13.90;99.90;;;;;;5071113;28;19913;-70
2022/08/08 07:02:33;;;;;;;;;;;13.80;99.90;;;;;;5071618;28;19909;-71
2022/08/08 07:05:04;;;;;;;;;;;13.80;99.90;;;;;;5071227;28;19908;-72
2022/08/08 07:07:30;;;;;;;;;;;13.80;99.90;;;;;;5071495;28;20337;-69
2022/08/08 07:10:05;;;;;;;;;;;13.80;99.90;;;;;;5071570;28;20389;-71
2022/08/08 07:12:42;;;;;;;;;;;13.70;99.90;;;;;;5071358;28;19962;-71
2022/08/08 07:15:11;;;;;;;;;;;13.70;99.90;;;;;;5071498;28;20278;-70
2022/08/08 07:17:45;;;;;;;;;;;13.70;99.90;;;;;;5070856;28;19912;-69
2022/08/08 07:20:17;;;;;;;;;;;13.60;99.90;;;;;;5072290;28;19931;-70
2022/08/08 07:22:53;;;;;;;;;;;13.60;99.90;;;;;;5072133;28;19975;-69
2022/08/08 07:25:20;;;;;;;;;;;13.50;99.90;;;;;;5071837;28;19912;-70
2022/08/08 07:27:50;;;;;;;;;;;13.60;99.90;;;;;;5071509;28;20003;-70
2022/08/08 07:30:17;;;;;;;;;;;13.60;99.90;;;;;;5070813;28;19927;-68
2022/08/08 07:32:44;;;;;;;;;;;13.60;99.90;;;;;;5071343;28;20468;-69
2022/08/08 07:35:12;;;;;;;;;;;13.50;99.90;;;;;;5071446;28;19912;-69
2022/08/08 07:37:39;;;;;;;;;;;13.50;99.90;;;;;;5071413;28;19935;-70
2022/08/08 07:40:06;;;;;;;;;;;13.50;99.90;;;;;;5070917;28;19909;-70
2022/08/08 07:42:36;;;;;;;;;;;13.40;99.90;;;;;;5071463;28;19915;-69
2022/08/08 07:45:03;;;;;;;;;;;13.40;99.90;;;;;;5070677;28;19928;-69
2022/08/08 07:47:29;;;;;;;;;;;13.40;99.90;;;;;;5071323;28;20287;-70
2022/08/08 07:49:56;;;;;;;;;;;13.40;99.90;;;;;;5071006;28;19917;-70
2022/08/08 07:52:23;;;;;;;;;;;13.40;99.90;;;;;;5070860;28;20418;-70
2022/08/08 07:55:01;;;;;;;;;;;13.40;99.90;;;;;;5071043;28;19912;-69
2022/08/08 07:57:40;;;;;;;;;;;13.40;99.90;;;;;;5070758;28;19913;-69
2022/08/08 08:00:08;;;;;;;;;;;13.40;99.90;;;;;;5070861;28;19908;-69
2022/08/08 08:02:44;;;;;;;;;;;13.40;99.90;;;;;;5074487;28;20386;-69
2022/08/08 08:05:16;;;;;;;;;;;13.40;99.90;;;;;;5075026;28;19912;-69
2022/08/08 08:07:46;;;;;;;;;;;13.40;99.90;;;;;;5075410;28;19916;-69
2022/08/08 08:10:16;;;;;;;;;;;13.40;99.90;;;;;;5074180;28;19917;-69
2022/08/08 08:12:49;;;;;;;;;;;13.40;99.90;;;;;;5107014;28;19916;-70
2022/08/08 08:15:18;;;;;;;;;;;13.30;99.90;;;;;;5074763;28;19965;-69
2022/08/08 08:17:46;;;;;;;;;;;13.40;99.90;;;;;;5074739;28;19908;-70
2022/08/08 08:20:14;;;;;;;;;;;13.40;99.90;;;;;;5075150;28;20291;-69
2022/08/08 08:22:40;;;;;;;;;;;13.40;99.90;;;;;;5075568;28;19908;-70
2022/08/08 08:25:07;;;;;;;;;;;13.30;99.90;;;;;;5075305;28;19970;-69
2022/08/08 08:27:34;;;;;;;;;;;13.30;99.90;;;;;;5075023;28;20379;-69
2022/08/08 08:30:01;;;;;;;;;;;13.40;99.90;;;;;;5075458;28;19923;-70
2022/08/08 08:32:28;;;;;;;;;;;13.40;99.90;;;;;;5075328;28;19909;-69
2022/08/08 08:34:54;;;;;;;;;;;13.40;99.90;;;;;;5073808;28;19909;-69
2022/08/08 08:37:21;;;;;;;;;;;13.40;99.90;;;;;;5074736;28;19915;-69
2022/08/08 08:39:48;;;;;;;;;;;13.40;99.90;;;;;;5075301;28;20520;-69
2022/08/08 08:42:15;;;;;;;;;;;13.40;99.90;;;;;;5075405;28;19913;-69
2022/08/08 08:44:43;;;;;;;;;;;13.30;99.90;;;;;;5074517;28;20011;-70
2022/08/08 08:47:10;;;;;;;;;;;13.40;99.90;;;;;;5074687;28;19908;-70
2022/08/08 08:49:36;;;;;;;;;;;13.30;99.90;;;;;;5073101;28;20329;-69
2022/08/08 08:52:04;;;;;;;;;;;13.30;99.90;;;;;;5074192;28;19954;-69
2022/08/08 08:54:33;;;;;;;;;;;13.30;99.90;;;;;;5074527;28;19999;-70
2022/08/08 08:57:01;;;;;;;;;;;13.30;99.90;;;;;;5073862;28;19912;-69
2022/08/08 08:59:30;;;;;;;;;;;13.30;99.90;;;;;;5074113;28;19962;-70
2022/08/08 09:01:57;;;;;;;;;;;13.30;99.90;;;;;;5074062;28;19947;-68
2022/08/08 09:04:25;;;;;;;;;;;13.40;99.90;;;;;;5076050;28;20259;-69
2022/08/08 09:06:55;;;;;;;;;;;13.40;99.90;;;;;;5076246;28;19955;-69
2022/08/08 09:09:26;;;;;;;;;;;13.40;99.90;;;;;;5075809;28;19928;-69
2022/08/08 09:11:54;;;;;;;;;;;13.40;99.90;;;;;;5075695;28;20279;-69
2022/08/08 09:14:24;;;;;;;;;;;13.40;99.90;;;;;;5075428;28;20280;-69
2022/08/08 09:16:51;;;;;;;;;;;13.40;99.90;;;;;;5075683;28;19930;-69
2022/08/08 09:19:19;;;;;;;;;;;13.40;99.90;;;;;;5075499;28;19991;-68
2022/08/08 09:21:46;;;;;;;;;;;13.40;99.90;;;;;;5073907;28;20038;-69
2022/08/08 09:24:16;;;;;;;;;;;13.40;99.90;;;;;;5075113;28;19909;-69
2022/08/08 09:26:43;;;;;;;;;;;13.40;99.90;;;;;;5075295;28;19915;-69
2022/08/08 09:29:12;;;;;;;;;;;13.50;99.90;;;;;;5075144;28;19919;-69
2022/08/08 09:31:52;;;;;;;;;;;13.40;99.90;;;;;;5075488;28;20355;-69
2022/08/08 09:34:19;;;;;;;;;;;13.40;99.90;;;;;;5075229;28;19908;-68
2022/08/08 09:36:47;;;;;;;;;;;13.40;99.90;;;;;;5075354;28;19997;-68
2022/08/08 09:39:20;;;;;;;;;;;13.40;99.90;;;;;;5075273;28;19908;-69
2022/08/08 09:42:01;;;;;;;;;;;13.40;99.90;;;;;;5075100;28;19916;-68
2022/08/08 09:44:40;;;;;;;;;;;13.30;99.90;;;;;;5074964;28;20359;-68
2022/08/08 09:47:08;;;;;;;;;;;13.30;99.90;;;;;;5074985;28;19909;-69
2022/08/08 09:49:36;;;;;;;;;;;13.20;99.90;;;;;;5071705;28;19920;-69
2022/08/08 09:52:03;;;;;;;;;;;13.20;99.90;;;;;;5054378;28;19913;-69
2022/08/08 09:54:35;;;;;;;;;;;13.20;99.90;;;;;;5054766;28;19909;-69
2022/08/08 09:57:02;;;;;;;;;;;13.30;99.90;;;;;;5054240;28;19909;-69
2022/08/08 09:59:31;;;;;;;;;;;13.20;99.90;;;;;;5054867;28;20363;-70
2022/08/08 10:01:59;;;;;;;;;;;13.20;99.90;;;;;;5055332;28;19991;-68
2022/08/08 10:04:26;;;;;;;;;;;13.20;99.90;;;;;;5054632;28;19999;-69
2022/08/08 10:06:53;;;;;;;;;;;13.20;99.90;;;;;;5054675;28;20355;-69
2022/08/08 10:09:32;;;;;;;;;;;13.20;99.90;;;;;;5054368;28;19956;-69
2022/08/08 10:12:02;;;;;;;;;;;13.20;99.90;;;;;;5053944;28;20323;-68
2022/08/08 10:14:33;;;;;;;;;;;13.20;99.90;;;;;;5054672;28;19970;-69
2022/08/08 10:17:02;;;;;;;;;;;13.20;99.90;;;;;;5054447;28;20367;-69
2022/08/08 10:19:35;;;;;;;;;;;13.10;99.90;;;;;;5054336;28;19955;-69
2022/08/08 10:22:03;;;;;;;;;;;13.10;99.90;;;;;;5054225;28;19912;-70
2022/08/08 10:24:30;;;;;;;;;;;13.00;99.90;;;;;;5053671;28;19915;-69
2022/08/08 10:26:59;;;;;;;;;;;13.00;99.90;;;;;;5051734;28;19912;-69
2022/08/08 10:29:45;;;;;;;;;;;12.90;99.90;;;;;;5052094;28;19999;-69
2022/08/08 10:32:31;;;;;;;;;;;12.90;99.90;;;;;;5051324;28;20166;-69
2022/08/08 10:34:59;;;;;;;;;;;12.80;99.90;;;;;;5051827;28;19913;-69
2022/08/08 10:37:27;;;;;;;;;;;12.80;99.90;;;;;;5052024;28;19995;-69
2022/08/08 10:39:58;;;;;;;;;;;12.80;99.90;;;;;;5050975;28;20406;-69
2022/08/08 10:42:33;;;;;;;;;;;12.80;99.90;;;;;;5051904;28;19982;-69
2022/08/08 10:45:04;;;;;;;;;;;12.80;99.90;;;;;;5051846;28;19924;-69
2022/08/08 10:47:31;;;;;;;;;;;12.70;99.90;;;;;;5052289;28;20016;-70
2022/08/08 10:49:58;;;;;;;;;;;12.70;99.90;;;;;;5054175;28;19925;-70
2022/08/08 10:52:36;;;;;;;;;;;12.70;99.90;;;;;;5059721;28;20012;-69
2022/08/08 10:55:03;;;;;;;;;;;12.70;99.90;;;;;;5051154;28;19908;-69
2022/08/08 10:57:30;;;;;;;;;;;12.50;99.90;;;;;;5051066;28;19948;-70
2022/08/08 10:59:58;;;;;;;;;;;12.50;99.90;;;;;;5050976;28;19913;-70
2022/08/08 11:02:32;;;;;;;;;;;12.40;99.90;;;;;;5050659;28;20703;-69
2022/08/08 11:05:00;;;;;;;;;;;12.40;99.90;;;;;;5051110;28;20404;-69
2022/08/08 11:07:27;;;;;;;;;;;12.40;99.90;;;;;;5051481;28;19962;-70
2022/08/08 11:09:54;;;;;;;;;;;12.40;99.90;;;;;;5051128;28;19917;-70
2022/08/08 11:12:21;;;;;;;;;;;12.40;99.90;;;;;;5051456;28;19920;-70
2022/08/08 11:15:02;;;;;;;;;;;12.30;99.90;;;;;;5051076;28;20007;-69
2022/08/08 11:17:30;;;;;;;;;;;12.30;99.90;;;;;;5050742;28;20363;-69
2022/08/08 11:19:57;;;;;;;;;;;12.30;99.90;;;;;;5050915;28;19962;-70
2022/08/08 11:22:26;;;;;;;;;;;12.30;99.90;;;;;;5051520;28;20347;-70
2022/08/08 11:25:10;;;;;;;;;;;12.20;99.90;;;;;;5050881;28;19951;-70
2022/08/08 11:27:37;;;;;;;;;;;12.20;99.90;;;;;;5050792;28;19913;-70
2022/08/08 11:30:06;;;;;;;;;;;12.10;99.90;;;;;;5050157;28;19916;-70
2022/08/08 11:32:36;;;;;;;;;;;12.10;99.90;;;;;;5050603;28;20291;-70
2022/08/08 11:35:03;;;;;;;;;;;12.00;99.90;;;;;;5050650;28;19920;-69
2022/08/08 11:37:30;;;;;;;;;;;12.10;99.90;;;;;;5050819;28;20038;-69
2022/08/08 11:39:58;;;;;;;;;;;12.00;99.90;;;;;;5050711;28;19920;-69
2022/08/08 11:42:25;;;;;;;;;;;12.00;99.90;;;;;;5050020;28;19919;-69
2022/08/08 11:44:56;;;;;;;;;;;11.90;99.90;;;;;;5050326;28;19920;-70
2022/08/08 11:47:23;;;;;;;;;;;11.90;99.90;;;;;;5050397;28;19916;-69
2022/08/08 11:49:54;;;;;;;;;;;11.80;99.90;;;;;;5050583;28;19924;-69
2022/08/08 11:52:21;;;;;;;;;;;11.80;99.90;;;;;;5050256;28;20398;-69
2022/08/08 11:54:48;;;;;;;;;;;11.70;99.90;;;;;;5049893;28;20372;-69
2022/08/08 11:57:24;;;;;;;;;;;11.70;99.90;;;;;;5050340;28;19932;-69
2022/08/08 11:59:57;;;;;;;;;;;11.60;99.90;;;;;;5050421;28;19909;-69
2022/08/08 12:02:25;;;;;;;;;;;11.60;99.90;;;;;;5050208;28;19992;-69
2022/08/08 12:05:08;;;;;;;;;;;11.50;99.90;;;;;;5050347;28;20000;-68
2022/08/08 12:08:01;;;;;;;;;;;11.50;99.90;;;;;;5050243;28;20367;-69
2022/08/08 12:10:31;;;;;;;;;;;11.40;99.90;;;;;;5049787;28;20452;-69
2022/08/08 12:13:08;;;;;;;;;;;11.50;99.90;;;;;;5050422;28;19909;-68
2022/08/08 12:15:36;;;;;;;;;;;11.40;99.90;;;;;;5050409;28;19909;-68
2022/08/08 12:18:13;;;;;;;;;;;11.40;99.90;;;;;;5050528;28;19909;-68
2022/08/08 12:20:40;;;;;;;;;;;11.40;99.90;;;;;;5050326;28;19913;-69
2022/08/08 12:23:07;;;;;;;;;;;11.30;99.90;;;;;;5050818;28;19923;-68
2022/08/08 12:25:34;;;;;;;;;;;11.30;99.90;;;;;;5052265;28;19913;-69
2022/08/08 12:28:16;;;;;;;;;;;11.30;99.90;;;;;;5050550;28;19913;-69
2022/08/08 12:30:43;;;;;;;;;;;11.30;99.90;;;;;;5050355;28;19921;-68
2022/08/08 12:33:17;;;;;;;;;;;11.20;99.90;;;;;;5049632;28;19936;-70
2022/08/08 12:35:45;;;;;;;;;;;11.20;99.90;;;;;;5049991;28;20291;-69
2022/08/08 12:38:12;;;;;;;;;;;11.10;99.90;;;;;;5050018;28;20403;-68
2022/08/08 12:40:40;;;;;;;;;;;11.10;99.90;;;;;;5050198;28;19916;-68
2022/08/08 12:43:07;;;;;;;;;;;11.10;99.90;;;;;;5050256;28;19916;-68
2022/08/08 12:45:35;;;;;;;;;;;11.10;99.90;;;;;;5050011;28;19932;-68
2022/08/08 12:48:05;;;;;;;;;;;11.10;99.90;;;;;;5051946;28;19916;-68
2022/08/08 12:50:42;;;;;;;;;;;11.10;99.90;;;;;;5053524;28;19921;-68
2022/08/08 12:53:22;;;;;;;;;;;11.10;99.90;;;;;;5053601;28;19954;-68
2022/08/08 12:56:08;;;;;;;;;;;11.00;99.90;;;;;;5053687;28;20379;-69
2022/08/08 12:58:44;;;;;;;;;;;11.00;99.90;;;;;;5053649;28;19917;-68
2022/08/08 13:01:11;;;;;;;;;;;11.00;99.90;;;;;;5053137;28;19913;-68
2022/08/08 13:03:45;;;;;;;;;;;10.90;99.90;;;;;;5053244;28;20402;-68
2022/08/08 13:06:17;;;;;;;;;;;11.00;99.90;;;;;;5053233;28;20417;-68
2022/08/08 13:08:44;;;;;;;;;;;11.00;99.90;;;;;;5053158;28;19912;-68
2022/08/08 13:11:32;;;;;;;;;;;10.90;99.90;;;;;;5053249;28;19949;-68
2022/08/08 13:14:04;;;;;;;;;;;10.90;99.90;;;;;;5051714;28;19913;-68
2022/08/08 13:16:34;;;;;;;;;;;10.80;99.90;;;;;;5053659;28;19908;-68
2022/08/08 13:19:07;;;;;;;;;;;10.80;99.90;;;;;;5053189;28;19995;-69
2022/08/08 13:21:41;;;;;;;;;;;10.80;99.90;;;;;;5051744;28;19908;-69
2022/08/08 13:24:08;;;;;;;;;;;10.80;99.90;;;;;;5052608;28;20680;-68
2022/08/08 13:26:35;;;;;;;;;;;10.80;99.90;;;;;;5052537;28;19913;-69
2022/08/08 13:29:09;;;;;;;;;;;10.80;99.90;;;;;;5052719;28;19920;-69
2022/08/08 13:31:35;;;;;;;;;;;10.80;99.90;;;;;;5052929;28;19940;-68
2022/08/08 13:34:02;;;;;;;;;;;10.90;99.90;;;;;;5052608;28;19955;-68
2022/08/08 13:36:29;;;;;;;;;;;10.80;99.90;;;;;;5052647;28;19913;-68
2022/08/08 13:38:56;;;;;;;;;;;10.90;99.90;;;;;;5052403;28;20382;-68
2022/08/08 13:41:23;;;;;;;;;;;10.90;99.90;;;;;;5052415;28;19963;-68
2022/08/08 13:43:49;;;;;;;;;;;10.90;99.90;;;;;;5052625;28;19991;-69
2022/08/08 13:46:17;;;;;;;;;;;10.80;99.90;;;;;;5052458;28;20017;-68
2022/08/08 13:48:48;;;;;;;;;;;10.80;99.90;;;;;;5052342;28;20050;-69
2022/08/08 13:51:17;;;;;;;;;;;10.80;99.90;;;;;;5052505;28;19917;-69
2022/08/08 13:53:55;;;;;;;;;;;10.70;99.90;;;;;;5067035;28;19916;-69
2022/08/08 13:56:35;;;;;;;;;;;10.80;99.90;;;;;;5093153;28;20302;-68
2022/08/08 13:59:03;;;;;;;;;;;10.80;99.90;;;;;;5092149;28;19912;-68
2022/08/08 14:01:30;;;;;;;;;;;10.70;99.90;;;;;;5092976;28;19908;-68
2022/08/08 14:03:58;;;;;;;;;;;10.80;99.90;;;;;;5093052;28;19916;-68
2022/08/08 14:06:25;;;;;;;;;;;10.80;99.90;;;;;;5092703;28;19919;-69
2022/08/08 14:08:52;;;;;;;;;;;10.70;99.90;;;;;;5092933;28;19970;-69
2022/08/08 14:11:23;;;;;;;;;;;10.70;99.90;;;;;;5093040;28;19966;-68
2022/08/08 14:13:51;;;;;;;;;;;10.70;99.90;;;;;;5092964;28;19915;-68
2022/08/08 14:16:18;;;;;;;;;;;10.60;99.90;;;;;;5091300;28;19916;-69
2022/08/08 14:19:00;;;;;;;;;;;10.60;99.90;;;;;;5092441;28;19952;-68
2022/08/08 14:21:40;;;;;;;;;;;10.70;99.90;;;;;;5091422;28;20004;-69
2022/08/08 14:24:07;;;;;;;;;;;10.70;99.90;;;;;;5092528;28;19923;-69
2022/08/08 14:26:42;;;;;;;;;;;10.70;99.90;;;;;;5092664;28;20042;-69
2022/08/08 14:29:18;;;;;;;;;;;10.70;99.90;;;;;;5091291;28;20375;-69
2022/08/08 14:31:48;;;;;;;;;;;10.70;99.90;;;;;;5092293;28;19975;-68
2022/08/08 14:34:15;;;;;;;;;;;10.60;99.90;;;;;;5092352;28;19923;-69
2022/08/08 14:36:42;;;;;;;;;;;10.60;99.90;;;;;;5092449;28;19979;-68
2022/08/08 14:39:09;;;;;;;;;;;10.70;99.90;;;;;;5092386;28;19908;-68
2022/08/08 14:41:42;;;;;;;;;;;10.60;99.90;;;;;;5092342;28;20366;-69
2022/08/08 14:44:10;;;;;;;;;;;10.60;99.90;;;;;;5092099;28;19943;-68
2022/08/08 14:46:37;;;;;;;;;;;10.60;99.90;;;;;;5091993;28;19959;-68